ROS weather

Islas Malvinas Airport
Rosario, Santa Fe Province, Argentina

Public forecast

Using degrees Celsius for public forecast. Weather courtesy of forecast.io.

Current aviation weather report (METAR) for Islas Malvinas Airport

Retrieved 2020/07/02 09:00 UTC (12 minutes ago):

SAAR 020900Z 05004KT CAVOK M02/M02 Q1021

Aviation forecast (TAF) for Islas Malvinas Airport

Retrieved 2020/07/02 06:00 UTC (3 hours ago):

TAF SAAR 020500Z 0206/0306 VRB03KT 1500 MIFG BR NSC TX14/0218Z TN00/0210Z BECMG 0207/0209 0800 FG SCT010 BECMG 0212/0213 VRB03KT 9999 SCT030 BECMG 0219/0221 34005KT